Time,TemperatureF,DewpointF,PressureIn,WindDirection,WindDirectionDegrees,WindSpeedMPH,WindSpeedGustMPH,Humidity,HourlyPrecipIn,Conditions,Clouds,dailyrainin,SoftwareType,DateUTC
2013-06-28 00:04:00,81.3,79.7,29.95,SE,137,12.6,18.4,95,0.00,CLR,,0.00,WeatherDisplay:10.37,2013-06-28 05:04:00,
2013-06-28 00:09:00,81.3,79.7,29.95,SE,136,10.5,17.3,95,0.00,CLR,,0.00,WeatherDisplay:10.37,2013-06-28 05:09:00,
2013-06-28 00:14:00,81.4,79.8,29.95,SSE,167,11.4,17.3,95,0.00,CLR,,0.00,WeatherDisplay:10.37,2013-06-28 05:14:00,
2013-06-28 00:19:00,81.4,79.8,29.95,SSE,160,10.5,18.5,95,0.00,CLR,,0.00,WeatherDisplay:10.37,2013-06-28 05:19:00,
2013-06-28 00:25:00,81.4,79.8,29.95,SSE,154,11.5,17.3,95,0.00,CLR,,0.00,WeatherDisplay:10.37,2013-06-28 05:25:00,
2013-06-28 00:30:00,81.3,79.7,29.95,SSE,160,14.3,18.4,95,0.00,CLR,,0.00,WeatherDisplay:10.37,2013-06-28 05:30:00,
2013-06-28 00:35:00,81.2,79.6,29.96,SSE,147,12.0,16.1,95,0.00,CLR,,0.00,WeatherDisplay:10.37,2013-06-28 05:35:00,
2013-06-28 00:40:00,81.1,79.5,29.96,SSE,154,10.9,17.3,95,0.00,CLR,,0.00,WeatherDisplay:10.37,2013-06-28 05:40:00,
2013-06-28 00:45:00,81.1,79.2,29.96,SSE,168,13.5,18.9,94,0.00,CLR,,0.00,WeatherDisplay:10.37,2013-06-28 05:45:00,
2013-06-28 00:50:00,81.3,79.7,29.96,SE,145,10.3,16.1,95,0.00,CLR,,0.00,WeatherDisplay:10.37,2013-06-28 05:50:00,
2013-06-28 00:55:00,81.3,79.4,29.96,SE,137,14.2,20.7,94,0.00,CLR,,0.00,WeatherDisplay:10.37,2013-06-28 05:55:00,
2013-06-28 01:00:00,81.3,79.7,29.96,SE,127,12.6,19.2,95,0.00,CLR,,0.00,WeatherDisplay:10.37,2013-06-28 06:00:00,
2013-06-28 01:05:00,81.3,79.7,29.97,SE,133,10.6,15.7,95,0.00,CLR,,0.00,WeatherDisplay:10.37,2013-06-28 06:05:00,
2013-06-28 01:10:00,81.3,79.7,29.97,SSE,152,9.1,16.3,95,0.00,CLR,,0.00,WeatherDisplay:10.37,2013-06-28 06:10:00,
2013-06-28 01:15:00,81.2,79.6,29.98,SE,145,11.5,18.4,95,0.00,CLR,,0.00,WeatherDisplay:10.37,2013-06-28 06:15:00,
2013-06-28 01:20:00,81.2,79.6,29.98,ESE,103,10.4,15.0,95,0.00,CLR,,0.00,WeatherDisplay:10.37,2013-06-28 06:20:00,
2013-06-28 01:25:00,81.2,79.6,29.98,SSW,198,9.8,15.0,95,0.00,CLR,,0.00,WeatherDisplay:10.37,2013-06-28 06:25:00,
2013-06-28 01:30:00,81.1,79.5,29.98,SSE,160,10.5,16.1,95,0.00,CLR,,0.00,WeatherDisplay:10.37,2013-06-28 06:30:00,
2013-06-28 01:35:00,81.2,79.6,29.98,SSE,165,9.6,17.3,95,0.00,CLR,,0.00,WeatherDisplay:10.37,2013-06-28 06:35:00,
2013-06-28 01:40:00,81.2,79.3,29.98,South,182,9.8,17.3,94,0.00,CLR,,0.00,WeatherDisplay:10.37,2013-06-28 06:40:00,
2013-06-28 01:45:00,81.2,79.3,29.98,SE,145,10.3,16.1,94,0.00,CLR,,0.00,WeatherDisplay:10.37,2013-06-28 06:45:00,
2013-06-28 01:50:00,81.1,79.2,29.98,SSE,158,8.5,15.0,94,0.00,CLR,,0.00,WeatherDisplay:10.37,2013-06-28 06:50:00,
2013-06-28 01:55:00,81.2,79.3,29.99,South,171,9.1,16.1,94,0.00,CLR,,0.00,WeatherDisplay:10.37,2013-06-28 06:55:00,
2013-06-28 02:00:00,81.2,79.3,29.99,South,179,11.3,15.0,94,0.00,CLR,,0.00,WeatherDisplay:10.37,2013-06-28 07:00:00,
2013-06-28 02:05:00,81.2,79.3,29.99,South,171,10.1,16.1,94,0.00,CLR,,0.00,WeatherDisplay:10.37,2013-06-28 07:05:00,
2013-06-28 02:10:00,81.2,79.6,29.99,SSE,167,11.0,15.9,95,0.00,CLR,,0.00,WeatherDisplay:10.37,2013-06-28 07:10:00,
2013-06-28 02:15:00,81.2,79.6,29.99,SSE,162,11.9,15.8,95,0.00,CLR,,0.00,WeatherDisplay:10.37,2013-06-28 07:15:00,
2013-06-28 02:20:00,81.0,79.4,29.99,SSE,160,11.2,13.8,95,0.00,CLR,,0.00,WeatherDisplay:10.37,2013-06-28 07:20:00,
2013-06-28 02:25:00,81.0,79.4,29.99,SSW,192,11.7,16.1,95,0.00,CLR,,0.00,WeatherDisplay:10.37,2013-06-28 07:25:00,
2013-06-28 02:30:00,80.8,79.2,29.99,SSE,151,9.9,15.0,95,0.00,CLR,,0.00,WeatherDisplay:10.37,2013-06-28 07:30:00,
2013-06-28 02:35:00,80.7,79.1,29.99,South,176,10.2,16.1,95,0.00,CLR,,0.00,WeatherDisplay:10.37,2013-06-28 07:35:00,
2013-06-28 02:40:00,80.8,79.2,29.99,South,175,11.8,16.1,95,0.00,CLR,,0.00,WeatherDisplay:10.37,2013-06-28 07:40:00,
2013-06-28 02:45:00,80.7,79.1,29.99,SSE,160,9.2,14.0,95,0.00,CLR,,0.00,WeatherDisplay:10.37,2013-06-28 07:45:00,
2013-06-28 02:50:00,80.7,78.8,29.99,South,175,11.7,16.1,94,0.00,CLR,,0.00,WeatherDisplay:10.37,2013-06-28 07:50:00,
2013-06-28 02:55:00,80.8,78.9,29.99,SSW,192,8.5,15.0,94,0.00,CLR,,0.00,WeatherDisplay:10.37,2013-06-28 07:55:00,
2013-06-28 03:00:00,80.7,78.5,29.99,SSE,158,11.0,16.1,93,0.00,CLR,,0.00,WeatherDisplay:10.37,2013-06-28 08:00:00,
2013-06-28 03:05:00,80.6,78.4,29.99,South,184,12.0,14.8,93,0.00,CLR,,0.00,WeatherDisplay:10.37,2013-06-28 08:05:00,
2013-06-28 03:10:00,80.5,78.3,29.99,South,172,9.9,17.5,93,0.00,CLR,,0.00,WeatherDisplay:10.37,2013-06-28 08:10:00,
2013-06-28 03:15:00,80.6,78.1,29.99,South,184,9.6,17.3,92,0.00,CLR,,0.00,WeatherDisplay:10.37,2013-06-28 08:15:00,
2013-06-28 03:21:00,80.7,78.2,29.99,South,184,8.4,11.4,92,0.00,CLR,,0.00,WeatherDisplay:10.37,2013-06-28 08:21:00,
2013-06-28 03:26:00,80.7,78.2,29.99,SSE,160,10.3,16.1,92,0.00,CLR,,0.00,WeatherDisplay:10.37,2013-06-28 08:26:00,
2013-06-28 03:31:00,80.6,78.1,29.98,SSE,150,12.6,16.1,92,0.00,CLR,,0.00,WeatherDisplay:10.37,2013-06-28 08:31:00,
2013-06-28 03:36:00,80.6,78.4,29.98,South,179,9.7,13.8,93,0.00,CLR,,0.00,WeatherDisplay:10.37,2013-06-28 08:36:00,
2013-06-28 03:41:00,80.5,78.3,29.98,South,184,10.6,17.3,93,0.00,CLR,,0.00,WeatherDisplay:10.37,2013-06-28 08:41:00,
2013-06-28 03:46:00,80.4,78.2,29.98,South,181,9.8,16.1,93,0.00,CLR,,0.00,WeatherDisplay:10.37,2013-06-28 08:46:00,
2013-06-28 03:51:00,80.3,77.8,29.98,South,184,13.4,17.3,92,0.00,CLR,,0.00,WeatherDisplay:10.37,2013-06-28 08:51:00,
2013-06-28 03:57:00,80.4,78.2,29.98,South,174,10.9,13.9,93,0.00,CLR,,0.00,WeatherDisplay:10.37,2013-06-28 08:57:00,
2013-06-28 04:02:00,80.3,78.1,29.98,SSW,193,9.1,15.0,93,0.00,CLR,,0.00,WeatherDisplay:10.37,2013-06-28 09:02:00,
2013-06-28 04:07:00,80.5,78.3,29.98,SSE,157,11.3,16.1,93,0.00,CLR,,0.00,WeatherDisplay:10.37,2013-06-28 09:07:00,
2013-06-28 04:12:00,80.3,78.4,29.98,South,182,11.4,16.1,94,0.00,CLR,,0.00,WeatherDisplay:10.37,2013-06-28 09:12:00,
2013-06-28 04:17:00,80.5,78.3,29.98,South,175,10.4,13.8,93,0.00,CLR,,0.00,WeatherDisplay:10.37,2013-06-28 09:17:00,
2013-06-28 04:22:00,80.3,78.4,29.98,SSE,168,7.9,16.5,94,0.00,CLR,,0.00,WeatherDisplay:10.37,2013-06-28 09:22:00,
2013-06-28 04:27:00,80.4,78.5,29.97,SSE,150,9.4,17.3,94,0.00,CLR,,0.00,WeatherDisplay:10.37,2013-06-28 09:27:00,
2013-06-28 04:32:00,80.4,78.5,29.97,South,174,10.6,16.1,94,0.00,CLR,,0.00,WeatherDisplay:10.37,2013-06-28 09:32:00,
2013-06-28 04:37:00,80.4,78.5,29.97,SSE,157,8.8,12.7,94,0.00,CLR,,0.00,WeatherDisplay:10.37,2013-06-28 09:37:00,
2013-06-28 04:42:00,80.3,78.4,29.97,SSE,165,11.7,16.1,94,0.00,CLR,,0.00,WeatherDisplay:10.37,2013-06-28 09:42:00,
2013-06-28 04:47:00,80.3,78.4,29.97,South,176,11.1,16.2,94,0.00,CLR,,0.00,WeatherDisplay:10.37,2013-06-28 09:47:00,
2013-06-28 04:52:00,80.4,78.8,29.97,South,184,8.0,16.2,95,0.00,CLR,,0.00,WeatherDisplay:10.37,2013-06-28 09:52:00,
2013-06-28 04:57:00,80.4,78.8,29.97,SSE,165,7.2,16.2,95,0.00,CLR,,0.00,WeatherDisplay:10.37,2013-06-28 09:57:00,
2013-06-28 05:02:00,80.3,78.7,29.97,South,182,10.9,15.0,95,0.00,CLR,,0.00,WeatherDisplay:10.37,2013-06-28 10:02:00,
2013-06-28 05:07:00,80.3,78.7,29.97,South,181,10.9,15.7,95,0.00,CLR,,0.00,WeatherDisplay:10.37,2013-06-28 10:07:00,
2013-06-28 05:12:00,80.2,78.6,29.97,SSW,199,10.1,15.0,95,0.00,CLR,,0.00,WeatherDisplay:10.37,2013-06-28 10:12:00,
2013-06-28 05:18:00,80.2,78.6,29.97,SSE,165,11.0,18.4,95,0.00,CLR,,0.00,WeatherDisplay:10.37,2013-06-28 10:18:00,
2013-06-28 05:23:00,80.2,78.6,29.97,South,186,9.6,15.0,95,0.00,CLR,,0.00,WeatherDisplay:10.37,2013-06-28 10:23:00,
2013-06-28 05:28:00,80.2,78.6,29.97,SSE,167,8.1,12.7,95,0.00,CLR,,0.00,WeatherDisplay:10.37,2013-06-28 10:28:00,
2013-06-28 05:33:00,80.2,78.6,29.97,South,169,10.3,13.8,95,0.00,CLR,,0.00,WeatherDisplay:10.37,2013-06-28 10:33:00,
2013-06-28 05:38:00,80.2,78.6,29.97,SSW,198,10.1,14.7,95,0.00,CLR,,0.00,WeatherDisplay:10.37,2013-06-28 10:38:00,
2013-06-28 05:43:00,80.2,78.6,29.96,SSW,200,9.9,16.1,95,0.00,CLR,,0.00,WeatherDisplay:10.37,2013-06-28 10:43:00,
2013-06-28 05:48:00,80.2,78.6,29.96,SSW,202,8.6,11.5,95,0.00,CLR,,0.00,WeatherDisplay:10.37,2013-06-28 10:48:00,
2013-06-28 05:53:00,80.3,79.1,29.95,South,179,10.3,13.8,96,0.00,CLR,,0.00,WeatherDisplay:10.37,2013-06-28 10:53:00,
2013-06-28 05:58:00,80.1,78.5,29.95,South,191,10.0,15.0,95,0.00,CLR,,0.00,WeatherDisplay:10.37,2013-06-28 10:58:00,
2013-06-28 06:03:00,80.3,79.1,29.95,South,184,8.6,11.5,96,0.00,CLR,,0.00,WeatherDisplay:10.37,2013-06-28 11:03:00,
2013-06-28 06:08:00,80.3,79.1,29.95,SSW,203,8.4,13.9,96,0.00,CLR,,0.00,WeatherDisplay:10.37,2013-06-28 11:08:00,
2013-06-28 06:13:00,80.3,79.1,29.95,SW,229,7.4,11.5,96,0.00,CLR,,0.00,WeatherDisplay:10.37,2013-06-28 11:13:00,
2013-06-28 06:18:00,80.2,78.6,29.95,SSW,205,8.6,12.1,95,0.00,CLR,,0.00,WeatherDisplay:10.37,2013-06-28 11:18:00,
2013-06-28 06:23:00,80.1,78.5,29.95,SSW,192,9.6,17.3,95,0.00,CLR,,0.00,WeatherDisplay:10.37,2013-06-28 11:23:00,
2013-06-28 06:29:00,80.2,78.6,29.95,SSW,210,9.3,12.7,95,0.00,CLR,,0.00,WeatherDisplay:10.37,2013-06-28 11:29:00,
2013-06-28 06:34:00,80.1,78.5,29.95,South,175,9.1,12.7,95,0.00,CLR,,0.00,WeatherDisplay:10.37,2013-06-28 11:34:00,
2013-06-28 06:39:00,80.1,78.5,29.95,SSE,150,8.2,16.1,95,0.00,CLR,,0.00,WeatherDisplay:10.37,2013-06-28 11:39:00,
2013-06-28 06:44:00,80.1,78.5,29.95,South,189,8.2,15.0,95,0.00,CLR,,0.00,WeatherDisplay:10.37,2013-06-28 11:44:00,
2013-06-28 06:49:00,80.1,78.5,29.95,South,186,10.0,17.3,95,0.00,CLR,,0.00,WeatherDisplay:10.37,2013-06-28 11:49:00,
2013-06-28 06:54:00,80.1,78.2,29.95,SSW,208,11.0,16.1,94,0.00,CLR,,0.00,WeatherDisplay:10.37,2013-06-28 11:54:00,
2013-06-28 06:59:00,80.1,78.2,29.95,South,172,7.3,12.7,94,0.00,CLR,,0.00,WeatherDisplay:10.37,2013-06-28 11:59:00,
2013-06-28 07:04:00,80.2,78.3,29.95,SSW,206,10.7,15.4,94,0.00,CLR,,0.00,WeatherDisplay:10.37,2013-06-28 12:04:00,
2013-06-28 07:09:00,80.1,78.2,29.95,SSW,199,8.1,13.8,94,0.00,CLR,,0.00,WeatherDisplay:10.37,2013-06-28 12:09:00,
2013-06-28 07:14:00,80.2,78.3,29.95,SSW,203,7.7,13.8,94,0.00,CLR,,0.00,WeatherDisplay:10.37,2013-06-28 12:14:00,
2013-06-28 07:19:00,80.1,78.2,29.94,SSE,167,9.5,13.9,94,0.00,CLR,,0.00,WeatherDisplay:10.37,2013-06-28 12:19:00,
2013-06-28 07:24:00,80.1,77.9,29.94,South,171,10.7,16.1,93,0.00,CLR,,0.00,WeatherDisplay:10.37,2013-06-28 12:24:00,
2013-06-28 07:29:00,80.2,78.0,29.94,South,188,9.6,16.1,93,0.00,CLR,,0.00,WeatherDisplay:10.37,2013-06-28 12:29:00,
2013-06-28 07:34:00,80.2,77.7,29.95,SSE,152,10.9,17.0,92,0.00,CLR,,0.00,WeatherDisplay:10.37,2013-06-28 12:34:00,
2013-06-28 07:39:00,80.3,77.8,29.95,SSW,192,9.6,13.8,92,0.00,CLR,,0.00,WeatherDisplay:10.37,2013-06-28 12:39:00,
2013-06-28 07:44:00,80.5,78.0,29.95,South,188,7.6,14.0,92,0.00,CLR,,0.00,WeatherDisplay:10.37,2013-06-28 12:44:00,
2013-06-28 07:49:00,80.4,77.5,29.95,SSW,192,11.2,16.5,91,0.00,CLR,,0.00,WeatherDisplay:10.37,2013-06-28 12:49:00,
2013-06-28 07:54:00,80.4,77.5,29.96,SSW,195,6.9,13.8,91,0.00,CLR,,0.00,WeatherDisplay:10.37,2013-06-28 12:54:00,
2013-06-28 07:59:00,80.5,77.3,29.96,SSW,202,7.4,12.7,90,0.00,CLR,,0.00,WeatherDisplay:10.37,2013-06-28 12:59:00,
2013-06-28 08:04:00,80.6,77.4,29.96,SSW,198,7.9,11.5,90,0.00,CLR,,0.00,WeatherDisplay:10.37,2013-06-28 13:04:00,
2013-06-28 08:09:00,80.5,77.0,29.96,SSW,210,8.3,11.6,89,0.00,CLR,,0.00,WeatherDisplay:10.37,2013-06-28 13:09:00,
2013-06-28 08:14:00,80.9,77.4,29.96,SSE,162,8.0,11.0,89,0.00,CLR,,0.00,WeatherDisplay:10.37,2013-06-28 13:14:00,
2013-06-28 08:19:00,80.9,77.0,29.96,South,188,8.1,10.4,88,0.00,CLR,,0.00,WeatherDisplay:10.37,2013-06-28 13:19:00,
2013-06-28 08:24:00,81.1,76.9,29.96,South,174,6.7,12.7,87,0.00,CLR,,0.00,WeatherDisplay:10.37,2013-06-28 13:24:00,
2013-06-28 08:29:00,81.1,76.9,29.96,SSW,203,6.7,8.8,87,0.00,CLR,,0.00,WeatherDisplay:10.37,2013-06-28 13:29:00,
2013-06-28 08:34:00,81.2,76.6,29.96,SSW,209,7.6,10.4,86,0.00,CLR,,0.00,WeatherDisplay:10.37,2013-06-28 13:34:00,
2013-06-28 08:39:00,81.2,76.6,29.96,SSW,202,8.3,10.4,86,0.00,CLR,,0.00,WeatherDisplay:10.37,2013-06-28 13:39:00,
2013-06-28 08:44:00,81.4,76.8,29.96,SSW,205,6.4,10.4,86,0.00,CLR,,0.00,WeatherDisplay:10.37,2013-06-28 13:44:00,
2013-06-28 08:49:00,81.4,76.8,29.96,South,189,8.1,11.3,86,0.00,CLR,,0.00,WeatherDisplay:10.37,2013-06-28 13:49:00,
2013-06-28 08:55:00,81.6,76.6,29.96,SSE,165,9.8,13.8,85,0.00,CLR,,0.00,WeatherDisplay:10.37,2013-06-28 13:55:00,
2013-06-28 09:00:00,81.5,76.2,29.95,SSW,202,11.9,17.3,84,0.00,CLR,,0.00,WeatherDisplay:10.37,2013-06-28 14:00:00,
2013-06-28 09:05:00,81.8,76.5,29.95,SSE,168,9.4,15.0,84,0.00,CLR,,0.00,WeatherDisplay:10.37,2013-06-28 14:05:00,
2013-06-28 09:10:00,81.8,75.8,29.95,South,185,9.5,13.8,82,0.00,CLR,,0.00,WeatherDisplay:10.37,2013-06-28 14:10:00,
2013-06-28 09:15:00,82.1,76.1,29.95,SSW,203,6.8,12.7,82,0.00,CLR,,0.00,WeatherDisplay:10.37,2013-06-28 14:15:00,
2013-06-28 09:20:00,82.0,75.6,29.96,South,169,9.1,12.7,81,0.00,CLR,,0.00,WeatherDisplay:10.37,2013-06-28 14:20:00,
2013-06-28 09:25:00,82.1,75.7,29.96,South,189,7.0,11.5,81,0.00,CLR,,0.00,WeatherDisplay:10.37,2013-06-28 14:25:00,
2013-06-28 09:30:00,82.3,75.5,29.96,South,191,8.9,12.7,80,0.00,CLR,,0.00,WeatherDisplay:10.37,2013-06-28 14:30:00,
2013-06-28 09:35:00,82.1,75.7,29.97,South,179,6.5,11.5,81,0.00,CLR,,0.00,WeatherDisplay:10.37,2013-06-28 14:35:00,
2013-06-28 09:40:00,82.2,75.4,29.97,SW,223,7.8,11.5,80,0.00,CLR,,0.00,WeatherDisplay:10.37,2013-06-28 14:40:00,
2013-06-28 15:52:00,87.5,74.7,29.88,South,176,11.9,18.7,66,0.00,CLR,,0.00,WeatherDisplay:10.37,2013-06-28 20:52:00,
2013-06-28 15:57:00,87.5,74.3,29.88,SE,134,11.6,18.4,65,0.00,CLR,,0.00,WeatherDisplay:10.37,2013-06-28 20:57:00,
2013-06-28 16:02:00,87.3,73.2,29.88,SE,140,11.1,17.3,63,0.00,CLR,,0.00,WeatherDisplay:10.37,2013-06-28 21:02:00,
2013-06-28 16:07:00,87.4,73.3,29.88,ESE,110,11.6,16.1,63,0.00,CLR,,0.00,WeatherDisplay:10.37,2013-06-28 21:07:00,
2013-06-28 16:12:00,87.3,73.2,29.87,SSE,147,12.9,16.1,63,0.00,CLR,,0.00,WeatherDisplay:10.37,2013-06-28 21:12:00,
2013-06-28 16:17:00,87.3,72.7,29.88,SE,128,12.5,17.3,62,0.00,CLR,,0.00,WeatherDisplay:10.37,2013-06-28 21:17:00,
2013-06-28 16:23:00,87.7,73.1,29.88,SE,144,11.2,18.4,62,0.00,CLR,,0.00,WeatherDisplay:10.37,2013-06-28 21:23:00,
2013-06-28 16:28:00,87.4,72.3,29.88,SE,140,11.9,17.3,61,0.00,CLR,,0.00,WeatherDisplay:10.37,2013-06-28 21:28:00,
2013-06-28 16:33:00,87.4,73.3,29.88,ESE,106,13.0,18.4,63,0.00,CLR,,0.00,WeatherDisplay:10.37,2013-06-28 21:33:00,
2013-06-28 16:38:00,87.4,73.7,29.87,SE,145,9.8,13.8,64,0.00,CLR,,0.00,WeatherDisplay:10.37,2013-06-28 21:38:00,
2013-06-28 16:43:00,87.4,72.8,29.87,SSE,167,11.0,16.2,62,0.00,CLR,,0.00,WeatherDisplay:10.37,2013-06-28 21:43:00,
2013-06-28 16:48:00,87.6,73.9,29.87,SE,138,11.4,17.3,64,0.00,CLR,,0.00,WeatherDisplay:10.37,2013-06-28 21:48:00,
2013-06-28 16:53:00,87.8,74.1,29.87,East,85,12.2,17.8,64,0.00,CLR,,0.00,WeatherDisplay:10.37,2013-06-28 21:53:00,
2013-06-28 16:58:00,87.9,73.7,29.86,SE,134,9.9,19.8,63,0.00,CLR,,0.00,WeatherDisplay:10.37,2013-06-28 21:58:00,
2013-06-28 17:03:00,87.7,73.5,29.86,SSE,161,12.2,19.6,63,0.00,CLR,,0.00,WeatherDisplay:10.37,2013-06-28 22:03:00,
2013-06-28 17:08:00,87.7,74.0,29.86,SE,127,12.0,16.1,64,0.00,CLR,,0.00,WeatherDisplay:10.37,2013-06-28 22:08:00,
2013-06-28 17:13:00,87.5,73.8,29.85,SE,143,11.3,19.6,64,0.00,CLR,,0.00,WeatherDisplay:10.37,2013-06-28 22:13:00,
2013-06-28 17:18:00,87.0,74.3,29.85,SSE,148,13.6,19.9,66,0.00,CLR,,0.00,WeatherDisplay:10.37,2013-06-28 22:18:00,
2013-06-28 17:23:00,87.2,74.5,29.85,SE,144,10.7,18.7,66,0.00,CLR,,0.00,WeatherDisplay:10.37,2013-06-28 22:23:00,
2013-06-28 17:29:00,87.1,74.4,29.85,SSE,148,14.8,18.8,66,0.00,CLR,,0.00,WeatherDisplay:10.37,2013-06-28 22:29:00,
2013-06-28 17:34:00,86.7,74.0,29.85,SE,134,13.6,19.0,66,0.00,CLR,,0.00,WeatherDisplay:10.37,2013-06-28 22:34:00,
2013-06-28 17:39:00,86.5,73.8,29.85,SSE,155,12.0,19.6,66,0.00,CLR,,0.00,WeatherDisplay:10.37,2013-06-28 22:39:00,
2013-06-28 17:44:00,86.3,74.0,29.85,SSE,155,13.5,19.6,67,0.00,CLR,,0.00,WeatherDisplay:10.37,2013-06-28 22:44:00,
2013-06-28 17:49:00,86.1,74.3,29.85,SSE,165,12.9,19.6,68,0.00,CLR,,0.00,WeatherDisplay:10.37,2013-06-28 22:49:00,
2013-06-28 17:54:00,86.0,74.6,29.85,SSE,150,11.7,17.3,69,0.00,CLR,,0.00,WeatherDisplay:10.37,2013-06-28 22:54:00,
2013-06-28 17:59:00,85.7,74.4,29.85,SE,136,12.0,18.4,69,0.00,CLR,,0.00,WeatherDisplay:10.37,2013-06-28 22:59:00,
2013-06-28 18:04:00,85.6,74.7,29.85,East,100,11.2,19.6,70,0.00,CLR,,0.00,WeatherDisplay:10.37,2013-06-28 23:04:00,
2013-06-28 18:09:00,85.9,75.0,29.85,SSE,151,12.5,19.6,70,0.00,CLR,,0.00,WeatherDisplay:10.37,2013-06-28 23:09:00,
2013-06-28 18:14:00,85.9,75.0,29.85,SSE,162,13.5,20.7,70,0.00,CLR,,0.00,WeatherDisplay:10.37,2013-06-28 23:14:00,
2013-06-28 18:19:00,85.6,75.1,29.85,SE,140,12.9,18.4,71,0.00,CLR,,0.00,WeatherDisplay:10.37,2013-06-28 23:19:00,
2013-06-28 18:24:00,85.5,75.4,29.85,SSE,158,13.9,20.9,72,0.00,CLR,,0.00,WeatherDisplay:10.37,2013-06-28 23:24:00,
2013-06-28 18:29:00,85.3,74.8,29.85,SSE,151,10.8,20.7,71,0.00,CLR,,0.00,WeatherDisplay:10.37,2013-06-28 23:29:00,
2013-06-28 18:34:00,85.3,75.2,29.85,SSE,150,13.3,18.4,72,0.00,CLR,,0.00,WeatherDisplay:10.37,2013-06-28 23:34:00,
2013-06-28 18:40:00,85.2,76.0,29.85,SSE,157,13.3,17.3,74,0.00,CLR,,0.00,WeatherDisplay:10.37,2013-06-28 23:40:00,
2013-06-28 18:45:00,85.0,76.2,29.85,SE,134,13.9,20.7,75,0.00,CLR,,0.00,WeatherDisplay:10.37,2013-06-28 23:45:00,
2013-06-28 18:50:00,85.1,76.7,29.85,SE,124,13.0,21.9,76,0.00,CLR,,0.00,WeatherDisplay:10.37,2013-06-28 23:50:00,
2013-06-28 18:55:00,85.0,77.0,29.85,SE,128,13.3,21.9,77,0.00,CLR,,0.00,WeatherDisplay:10.37,2013-06-28 23:55:00,
2013-06-28 19:00:00,85.0,77.4,29.85,SE,126,11.8,20.7,78,0.00,CLR,,0.00,WeatherDisplay:10.37,2013-06-29 00:00:00,
2013-06-28 19:05:00,84.6,77.0,29.85,ESE,123,12.3,18.4,78,0.00,CLR,,0.00,WeatherDisplay:10.37,2013-06-29 00:05:00,
2013-06-28 19:10:00,84.5,76.9,29.85,SSE,152,12.1,20.7,78,0.00,CLR,,0.00,WeatherDisplay:10.37,2013-06-29 00:10:00,
2013-06-28 19:15:00,84.3,77.1,29.85,SSE,165,13.4,20.7,79,0.00,CLR,,0.00,WeatherDisplay:10.37,2013-06-29 00:15:00,
2013-06-28 19:20:00,84.1,77.3,29.85,SE,140,13.4,18.4,80,0.00,CLR,,0.00,WeatherDisplay:10.37,2013-06-29 00:20:00,
2013-06-28 19:25:00,84.0,77.2,29.85,SE,143,12.3,19.6,80,0.00,CLR,,0.00,WeatherDisplay:10.37,2013-06-29 00:25:00,
2013-06-28 19:30:00,83.8,77.7,29.84,SE,130,13.3,20.7,82,0.00,CLR,,0.00,WeatherDisplay:10.37,2013-06-29 00:30:00,
2013-06-28 19:35:00,83.6,77.5,29.84,SSE,152,12.4,21.9,82,0.00,CLR,,0.00,WeatherDisplay:10.37,2013-06-29 00:35:00,
2013-06-28 19:40:00,83.4,77.7,29.84,SSE,158,13.3,20.8,83,0.00,CLR,,0.00,WeatherDisplay:10.37,2013-06-29 00:40:00,
2013-06-28 19:45:00,83.5,77.8,29.85,SSE,148,14.4,18.0,83,0.00,CLR,,0.00,WeatherDisplay:10.37,2013-06-29 00:45:00,
2013-06-28 19:50:00,83.2,77.9,29.85,SSE,151,11.6,17.7,84,0.00,CLR,,0.00,WeatherDisplay:10.37,2013-06-29 00:50:00,
2013-06-28 19:55:00,83.1,78.1,29.85,SSE,158,11.7,19.6,85,0.00,CLR,,0.00,WeatherDisplay:10.37,2013-06-29 00:55:00,
2013-06-28 20:00:00,82.9,77.9,29.85,SE,144,15.2,20.3,85,0.00,CLR,,0.00,WeatherDisplay:10.37,2013-06-29 01:00:00,
2013-06-28 20:05:00,82.9,78.3,29.85,SSE,155,12.0,18.4,86,0.00,CLR,,0.00,WeatherDisplay:10.37,2013-06-29 01:05:00,
2013-06-28 20:10:00,82.7,77.7,29.85,ESE,112,15.0,20.7,85,0.00,,,0.00,WeatherDisplay:10.37,2013-06-29 01:10:00,
2013-06-28 20:15:00,82.6,78.0,29.85,SSE,155,11.6,18.4,86,0.00,,,0.00,WeatherDisplay:10.37,2013-06-29 01:15:00,
2013-06-28 20:20:00,82.6,78.0,29.85,SSE,150,12.3,18.4,86,0.00,,,0.00,WeatherDisplay:10.37,2013-06-29 01:20:00,
2013-06-28 20:26:00,82.4,77.8,29.85,SE,128,14.9,20.7,86,0.00,CLR,,0.00,WeatherDisplay:10.37,2013-06-29 01:26:00,
2013-06-28 20:31:00,82.4,78.1,29.85,SE,141,13.1,20.7,87,0.00,CLR,,0.00,WeatherDisplay:10.37,2013-06-29 01:31:00,
2013-06-28 20:36:00,82.4,77.8,29.85,SSE,167,16.2,20.7,86,0.00,CLR,,0.00,WeatherDisplay:10.37,2013-06-29 01:36:00,
2013-06-28 20:41:00,82.4,78.1,29.85,SSE,154,14.3,20.7,87,0.00,CLR,,0.00,WeatherDisplay:10.37,2013-06-29 01:41:00,
2013-06-28 20:46:00,82.3,78.0,29.85,ESE,113,12.2,19.6,87,0.00,CLR,,0.00,WeatherDisplay:10.37,2013-06-29 01:46:00,
2013-06-28 20:51:00,82.3,78.0,29.85,SSE,154,12.7,20.7,87,0.00,,,0.00,WeatherDisplay:10.37,2013-06-29 01:51:00,
2013-06-28 20:56:00,82.4,78.5,29.85,South,176,10.4,16.1,88,0.00,,,0.00,WeatherDisplay:10.37,2013-06-29 01:56:00,
2013-06-28 21:01:00,82.3,78.0,29.85,SSE,147,13.3,21.1,87,0.00,,,0.00,WeatherDisplay:10.37,2013-06-29 02:01:00,
2013-06-28 21:06:00,82.2,77.6,29.85,SSE,150,11.9,19.6,86,0.00,CLR,,0.00,WeatherDisplay:10.37,2013-06-29 02:06:00,
2013-06-28 21:11:00,82.1,77.1,29.85,SSE,164,13.7,21.2,85,0.00,CLR,,0.00,WeatherDisplay:10.37,2013-06-29 02:11:00,
2013-06-28 21:16:00,82.0,76.7,29.85,SE,127,13.9,18.4,84,0.00,,,0.00,WeatherDisplay:10.37,2013-06-29 02:16:00,
2013-06-28 21:21:00,82.2,77.2,29.85,SSE,161,10.1,18.4,85,0.00,,,0.00,WeatherDisplay:10.37,2013-06-29 02:21:00,
2013-06-28 21:26:00,82.4,77.4,29.85,SE,134,10.8,19.6,85,0.00,,,0.00,WeatherDisplay:10.37,2013-06-29 02:26:00,
2013-06-28 21:31:00,82.3,77.3,29.85,South,178,10.9,17.3,85,0.00,CLR,,0.00,WeatherDisplay:10.37,2013-06-29 02:31:00,
2013-06-28 21:36:00,82.3,77.3,29.85,South,185,9.0,16.1,85,0.00,CLR,,0.00,WeatherDisplay:10.37,2013-06-29 02:36:00,
2013-06-28 21:41:00,82.3,77.0,29.85,SSE,161,12.3,18.4,84,0.00,CLR,,0.00,WeatherDisplay:10.37,2013-06-29 02:41:00,
2013-06-28 21:47:00,82.2,77.2,29.85,SE,136,10.1,15.0,85,0.00,CLR,,0.00,WeatherDisplay:10.37,2013-06-29 02:47:00,
2013-06-28 21:52:00,82.3,77.3,29.85,SSE,167,11.5,19.6,85,0.00,CLR,,0.00,WeatherDisplay:10.37,2013-06-29 02:52:00,
2013-06-28 21:57:00,82.4,77.4,29.85,SE,144,13.5,18.4,85,0.00,CLR,,0.00,WeatherDisplay:10.37,2013-06-29 02:57:00,
2013-06-28 22:02:00,82.2,77.2,29.85,South,171,12.6,20.2,85,0.00,CLR,,0.00,WeatherDisplay:10.37,2013-06-29 03:02:00,
2013-06-28 22:07:00,82.2,77.2,29.85,SSE,162,13.6,20.8,85,0.00,CLR,,0.00,WeatherDisplay:10.37,2013-06-29 03:07:00,
2013-06-28 22:12:00,82.1,76.8,29.85,South,181,13.3,20.8,84,0.00,CLR,,0.00,WeatherDisplay:10.37,2013-06-29 03:12:00,
2013-06-28 22:17:00,82.3,77.0,29.85,South,185,11.2,17.8,84,0.00,CLR,,0.00,WeatherDisplay:10.37,2013-06-29 03:17:00,
2013-06-28 22:22:00,81.9,76.2,29.85,SSE,165,13.0,21.1,83,0.00,CLR,,0.00,WeatherDisplay:10.37,2013-06-29 03:22:00,
2013-06-28 22:27:00,82.2,76.9,29.85,South,179,10.7,16.1,84,0.00,CLR,,0.00,WeatherDisplay:10.37,2013-06-29 03:27:00,
2013-06-28 22:32:00,82.2,76.2,29.85,SSW,196,13.7,21.9,82,0.00,CLR,,0.00,WeatherDisplay:10.37,2013-06-29 03:32:00,
2013-06-28 22:37:00,82.3,76.3,29.86,SE,143,12.0,17.3,82,0.00,CLR,,0.00,WeatherDisplay:10.37,2013-06-29 03:37:00,
2013-06-28 22:42:00,82.3,75.9,29.86,SSE,157,13.5,18.4,81,0.00,CLR,,0.00,WeatherDisplay:10.37,2013-06-29 03:42:00,
2013-06-28 22:47:00,82.4,77.1,29.86,South,176,13.9,17.3,84,0.00,CLR,,0.00,WeatherDisplay:10.37,2013-06-29 03:47:00,
2013-06-28 22:52:00,82.4,77.4,29.86,SSE,165,10.1,17.3,85,0.00,CLR,,0.00,WeatherDisplay:10.37,2013-06-29 03:52:00,
2013-06-28 22:57:00,82.3,77.7,29.86,SSW,208,11.2,17.3,86,0.00,CLR,,0.00,WeatherDisplay:10.37,2013-06-29 03:57:00,
2013-06-28 23:01:00,81.9,76.9,29.86,South,178,14.4,19.6,85,0.00,CLR,,0.00,WeatherDisplay:10.37,2013-06-29 04:01:00,
2013-06-28 23:02:00,81.8,77.2,29.86,SSE,160,14.1,19.6,86,0.00,CLR,,0.00,WeatherDisplay:10.37,2013-06-29 04:02:00,
2013-06-28 23:03:00,81.8,77.2,29.86,South,175,13.3,19.6,86,0.00,CLR,,0.00,WeatherDisplay:10.37,2013-06-29 04:03:00,
2013-06-28 23:04:00,81.9,77.3,29.86,South,176,14.5,20.0,86,0.00,CLR,,0.00,WeatherDisplay:10.37,2013-06-29 04:04:00,
2013-06-28 23:10:00,81.8,77.5,29.86,SSE,152,12.5,18.2,87,0.00,CLR,,0.00,WeatherDisplay:10.37,2013-06-29 04:10:00,
2013-06-28 23:15:00,81.9,77.6,29.86,South,175,18.4,18.4,87,0.00,,,0.00,WeatherDisplay:10.37,2013-06-29 04:15:00,
2013-06-28 23:20:00,81.9,78.0,29.86,South,184,14.6,21.6,88,0.00,,,0.00,WeatherDisplay:10.37,2013-06-29 04:20:00,
2013-06-28 23:25:00,81.7,77.8,29.86,South,171,14.0,21.6,88,0.00,,,0.00,WeatherDisplay:10.37,2013-06-29 04:25:00,
2013-06-28 23:30:00,81.5,77.9,29.86,South,176,12.0,21.9,89,0.00,CLR,,0.00,WeatherDisplay:10.37,2013-06-29 04:30:00,
2013-06-28 23:35:00,81.5,77.9,29.86,SSW,192,14.2,21.0,89,0.00,CLR,,0.00,WeatherDisplay:10.37,2013-06-29 04:35:00,
2013-06-28 23:40:00,81.5,77.9,29.86,SSE,151,13.0,19.6,89,0.00,CLR,,0.00,WeatherDisplay:10.37,2013-06-29 04:40:00,
2013-06-28 23:45:00,81.5,78.3,29.86,South,182,13.1,20.7,90,0.00,CLR,,0.00,WeatherDisplay:10.37,2013-06-29 04:45:00,
2013-06-28 23:50:00,81.5,78.3,29.86,South,175,10.0,20.8,90,0.00,CLR,,0.00,WeatherDisplay:10.37,2013-06-29 04:50:00,
2013-06-28 23:55:00,81.4,78.2,29.86,South,176,11.9,18.5,90,0.00,CLR,,0.00,WeatherDisplay:10.37,2013-06-29 04:55:00,